Time;durP1;ratioP1;P1;durP2;ratioP2;P2;SDS_P1;SDS_P2;PMS_P1;PMS_P2;Temp;Humidity;BMP_temperature;BMP_pressure;BME280_temperature;BME280_humidity;BME280_pressure;Samples;Min_cycle;Max_cycle;Signal;HPM_P1;HPM_P2
2022/02/04 00:05:56;;;;;;;65.90;61.80;;;;;;;10.01;100.00;101118.64;1846310;76;86487;-74
2022/02/04 00:23:35;;;;;;;62.37;58.43;;;;;;;10.13;100.00;101101.17;1882683;75;85399;-73
2022/02/04 00:29:25;;;;;;;60.67;56.87;;;;;;;10.15;100.00;101083.70;1936210;72;86217;-73
2022/02/04 00:35:15;;;;;;;60.90;57.27;;;;;;;10.20;100.00;101069.83;1981031;71;39644;-70
2022/02/04 00:40:58;;;;;;;60.53;56.93;;;;;;;10.41;100.00;101060.37;1948917;72;86563;-73
2022/02/04 00:46:44;;;;;;;61.60;58.00;;;;;;;10.41;100.00;101053.44;1886109;73;85386;-73
2022/02/04 00:52:31;;;;;;;62.80;59.00;;;;;;;10.42;100.00;101048.72;1904224;72;86640;-74
2022/02/04 01:13:19;;;;;;;61.98;58.17;;;;;;;10.42;100.00;101045.94;1862438;74;938772;-73
2022/02/04 01:31:01;;;;;;;62.50;58.63;;;;;;;10.50;100.00;101021.77;1891522;74;86602;-74
2022/02/04 01:36:45;;;;;;;64.30;60.00;;;;;;;10.60;100.00;101007.87;1875183;76;86431;-74
2022/02/04 01:42:30;;;;;;;66.07;61.97;;;;;;;10.63;100.00;101004.52;1884747;74;86421;-70
2022/02/04 01:48:14;;;;;;;68.37;64.03;;;;;;;10.63;100.00;101007.84;1817190;77;86025;-74
2022/02/04 01:54:01;;;;;;;64.47;60.17;;;;;;;10.66;100.00;101015.61;1891286;74;85968;-70
2022/02/04 01:59:45;;;;;;;65.63;61.50;;;;;;;10.70;100.00;101018.94;1904923;74;86428;-69
2022/02/04 02:05:28;;;;;;;68.30;63.60;;;;;;;10.66;100.00;101007.27;1904748;74;86053;-69
2022/02/04 02:11:19;;;;;;;68.17;63.47;;;;;;;10.48;100.00;100978.19;1919151;74;85468;-69
2022/02/04 02:35:33;;;;;;;67.80;63.20;;;;;;;10.36;100.00;100935.42;1911042;74;86620;-69
2022/02/04 02:47:29;;;;;;;69.97;65.27;;;;;;;10.28;100.00;100914.35;1976184;71;39661;-69
2022/02/04 02:53:44;;;;;;;65.83;61.07;;;;;;;10.21;100.00;100913.27;1975399;71;39703;-70
2022/02/04 02:59:17;;;;;;;72.73;67.83;;;;;;;10.21;100.00;100902.72;1887981;75;85929;-73
2022/02/04 03:04:59;;;;;;;72.87;68.00;;;;;;;10.22;100.00;100903.84;1801098;78;86268;-69
2022/02/04 03:10:43;;;;;;;71.03;66.23;;;;;;;10.21;100.00;100894.39;1794480;78;86741;-70
2022/02/04 03:16:28;;;;;;;72.30;67.50;;;;;;;10.15;100.00;100882.46;1902589;72;86553;-69
2022/02/04 03:22:14;;;;;;;73.77;68.87;;;;;;;10.20;100.00;100885.23;1974875;71;39503;-78
2022/02/04 03:27:59;;;;;;;67.60;62.80;;;;;;;10.30;100.00;100879.66;1801914;78;86243;-73
2022/02/04 03:33:45;;;;;;;68.47;63.80;;;;;;;10.34;100.00;100861.31;1808833;78;86239;-72
2022/02/04 03:39:32;;;;;;;67.77;63.10;;;;;;;10.29;100.00;100860.50;1905314;72;86125;-69
2022/02/04 03:45:17;;;;;;;67.20;62.77;;;;;;;10.37;100.00;100857.13;1910065;74;86510;-70
2022/02/04 03:51:01;;;;;;;67.40;63.13;;;;;;;10.37;100.00;100844.08;1986439;71;39398;-74
2022/02/04 03:56:46;;;;;;;65.47;61.00;;;;;;;10.45;100.00;100830.98;1895235;74;85559;-69
2022/02/04 04:02:30;;;;;;;63.47;59.33;;;;;;;10.52;100.00;100829.86;1836315;76;86733;-70
2022/02/04 04:08:15;;;;;;;63.07;58.73;;;;;;;10.65;100.00;100825.91;1945558;70;39710;-69
2022/02/04 04:13:59;;;;;;;64.80;60.53;;;;;;;10.67;100.00;100817.27;1809650;78;86393;-73
2022/02/04 04:19:43;;;;;;;66.27;62.00;;;;;;;10.68;100.00;100812.83;1807902;78;85483;-73
2022/02/04 04:25:29;;;;;;;65.57;61.37;;;;;;;10.71;100.00;100826.69;1910794;74;86093;-69
2022/02/04 04:31:15;;;;;;;62.70;58.60;;;;;;;10.71;100.00;100812.24;1837945;77;85641;-70
2022/02/04 04:36:59;;;;;;;64.53;60.23;;;;;;;10.80;100.00;100819.41;1802568;78;86286;-70
2022/02/04 04:42:56;;;;;;;65.17;60.47;;;;;;;10.78;100.00;100811.35;1808758;78;85496;-74
2022/02/04 05:31:05;;;;;;;66.47;61.67;;;;;;;10.41;100.00;100748.55;1979444;71;39580;-73
2022/02/04 05:36:59;;;;;;;63.90;59.00;;;;;;;10.28;100.00;100726.95;1821040;76;86261;-70
2022/02/04 05:42:38;;;;;;;64.60;60.00;;;;;;;10.34;100.00;100726.66;1874404;74;85623;-72
2022/02/04 05:48:22;;;;;;;65.87;60.90;;;;;;;10.42;100.00;100711.34;1909201;74;86281;-73
2022/02/04 05:54:13;;;;;;;65.60;61.10;;;;;;;10.47;100.00;100705.75;1979799;71;40163;-74
2022/02/04 06:00:16;;;;;;;63.47;58.80;;;;;;;10.39;100.00;100707.76;1834898;76;85967;-73
2022/02/04 06:06:04;;;;;;;61.37;56.83;;;;;;;10.45;100.00;100701.87;1892671;74;86373;-69
2022/02/04 06:11:48;;;;;;;65.77;60.97;;;;;;;10.56;100.00;100692.09;1869712;75;85441;-74
2022/02/04 06:23:26;;;;;;;65.27;60.60;;;;;;;10.55;100.00;100666.26;1937251;73;86646;-70
2022/02/04 06:29:11;;;;;;;63.67;59.07;;;;;;;10.43;100.00;100643.59;1985280;70;39518;-74
2022/02/04 06:34:59;;;;;;;66.70;62.00;;;;;;;10.62;100.00;100661.75;1835584;76;86347;-73
2022/02/04 06:40:43;;;;;;;67.23;62.77;;;;;;;10.62;100.00;100650.08;1802139;78;86208;-69
2022/02/04 06:46:27;;;;;;;61.93;57.30;;;;;;;10.66;100.00;100646.16;1908832;72;86187;-68
2022/02/04 06:52:14;;;;;;;59.63;55.07;;;;;;;10.68;100.00;100637.82;1984560;71;39570;-73
2022/02/04 06:57:58;;;;;;;61.60;57.83;;;;;;;10.66;100.00;100619.77;1951495;72;86362;-73
2022/02/04 07:03:44;;;;;;;59.07;55.07;;;;;;;10.77;100.00;100619.97;1816022;78;86119;-70
2022/02/04 07:09:39;;;;;;;58.73;55.03;;;;;;;10.73;100.00;100598.89;1944067;72;85547;-74
2022/02/04 07:15:50;;;;;;;56.10;52.20;;;;;;;10.80;100.00;100591.59;1835442;76;86439;-69
2022/02/04 07:21:16;;;;;;;58.33;54.43;;;;;;;10.83;100.00;100584.88;1940473;73;85395;-74
2022/02/04 07:27:00;;;;;;;58.23;54.23;;;;;;;10.96;100.00;100565.29;1892614;74;86969;-73
2022/02/04 07:32:54;;;;;;;57.93;54.03;;;;;;;10.96;100.00;100563.91;1801344;77;86141;-71
2022/02/04 07:38:52;;;;;;;57.57;53.63;;;;;;;11.00;100.00;100553.02;1874989;75;86385;-69
2022/02/04 07:44:35;;;;;;;58.33;54.23;;;;;;;11.04;100.00;100541.61;1873377;75;86366;-69
2022/02/04 07:50:21;;;;;;;62.13;57.70;;;;;;;11.02;100.00;100531.33;1909863;74;86295;-70
2022/02/04 07:56:06;;;;;;;65.10;60.30;;;;;;;10.83;100.00;100520.14;1982330;71;39591;-71
2022/02/04 08:01:52;;;;;;;66.97;62.07;;;;;;;10.69;100.00;100533.09;1811363;78;85542;-73
2022/02/04 08:07:43;;;;;;;67.70;62.50;;;;;;;10.62;100.00;100525.09;1879201;75;86125;-69
2022/02/04 08:13:47;;;;;;;68.60;63.27;;;;;;;10.56;100.00;100526.28;1948641;72;86382;-74
2022/02/04 08:31:32;;;;;;;86.30;81.07;;;;;;;8.13;100.00;100704.50;1977701;71;40557;-72
2022/02/04 08:55:45;;;;;;;80.10;75.00;;;;;;;6.67;100.00;100789.26;1914248;74;86763;-69
2022/02/04 09:01:35;;;;;;;74.43;69.43;;;;;;;6.67;100.00;100802.52;1865294;75;86617;-70
2022/02/04 09:07:19;;;;;;;72.60;67.80;;;;;;;6.50;100.00;100823.02;1909064;73;86196;-75
2022/02/04 09:19:21;;;;;;;76.53;71.40;;;;;;;6.18;100.00;100839.45;1937509;71;86422;-73
2022/02/04 09:25:07;;;;;;;74.20;69.30;;;;;;;6.11;100.00;100860.34;1976600;70;40282;-74
2022/02/04 09:30:52;;;;;;;79.10;73.73;;;;;;;6.01;100.00;100896.03;1830546;76;85338;-74
2022/02/04 09:36:37;;;;;;;79.70;74.60;;;;;;;6.03;100.00;100925.58;1879949;73;86627;-75
2022/02/04 09:42:22;;;;;;;77.80;72.70;;;;;;;5.54;100.00;100907.95;1935628;72;85269;-69
2022/02/04 09:48:11;;;;;;;72.07;67.07;;;;;;;5.82;100.00;100960.21;1975762;71;39757;-74
2022/02/04 10:12:38;;;;;;;68.60;63.70;;;;;;;5.88;100.00;101008.03;1937530;73;86185;-75
2022/02/04 10:18:33;;;;;;;66.73;62.13;;;;;;;5.78;100.00;101034.84;1910160;74;86442;-73
2022/02/04 10:24:22;;;;;;;65.00;60.40;;;;;;;5.72;100.00;101046.87;1921470;73;85591;-71
2022/02/04 10:27:19;;;;;;;67.07;62.30;;;;;;;5.78;100.00;101058.27;1878926;73;936842;-76
2022/02/04 10:33:09;;;;;;;64.90;60.30;;;;;;;5.91;100.00;101071.77;1977922;71;39463;-72
2022/02/04 10:38:58;;;;;;;67.57;62.87;;;;;;;5.70;100.00;101080.72;1827390;76;86328;-74
2022/02/04 10:51:23;;;;;;;65.93;61.13;;;;;;;6.24;100.00;101092.19;1782664;79;86296;-76
2022/02/04 10:57:13;;;;;;;77.17;72.17;;;;;;;6.22;100.00;101093.81;1832486;76;86275;-74
2022/02/04 11:03:04;;;;;;;69.87;65.07;;;;;;;6.20;100.00;101101.52;1865518;75;86604;-74
2022/02/04 11:09:00;;;;;;;68.50;63.80;;;;;;;6.23;100.00;101115.34;1802006;78;86295;-70
2022/02/04 11:52:34;;;;;;;64.90;60.53;;;;;;;7.08;100.00;101132.38;1985632;71;39748;-75
2022/02/04 11:58:30;;;;;;;64.40;60.10;;;;;;;7.10;100.00;101137.09;1922570;74;86670;-70
2022/02/04 12:04:23;;;;;;;64.47;60.37;;;;;;;7.50;100.00;101145.08;1822795;77;86270;-75
2022/02/04 12:13:34;;;;;;;61.23;57.33;;;;;;;7.51;100.00;101139.01;1880144;75;86430;-74
2022/02/04 12:19:20;;;;;;;61.37;57.50;;;;;;;7.60;100.00;101138.84;1909916;74;86437;-76
2022/02/04 12:25:06;;;;;;;62.63;58.53;;;;;;;7.67;100.00;101136.16;1985265;71;40472;-76
2022/02/04 12:30:52;;;;;;;60.90;57.00;;;;;;;7.79;100.00;101142.92;1830760;75;86001;-75
2022/02/04 12:36:41;;;;;;;64.23;60.07;;;;;;;8.25;100.00;101148.39;1885803;73;86283;-74
2022/02/04 12:42:28;;;;;;;63.00;59.10;;;;;;;8.27;100.00;101160.02;1945045;72;86229;-73
2022/02/04 12:48:18;;;;;;;60.67;56.97;;;;;;;8.18;100.00;101169.34;1914103;73;86236;-75
2022/02/04 12:54:09;;;;;;;60.00;56.53;;;;;;;8.45;100.00;101176.83;1935292;71;39609;-74
2022/02/04 13:00:00;;;;;;;51.83;48.87;;;;;;;8.34;100.00;101170.92;1855478;76;86488;-75
2022/02/04 13:11:49;;;;;;;50.17;47.37;;;;;;;8.50;100.00;101169.41;1842048;76;86407;-71
2022/02/04 13:17:44;;;;;;;55.17;52.17;;;;;;;8.58;100.00;101180.55;1807107;78;86239;-73
2022/02/04 13:23:31;;;;;;;55.07;52.17;;;;;;;8.44;100.00;101188.45;1932425;73;86713;-71
2022/02/04 13:29:18;;;;;;;50.90;47.90;;;;;;;8.61;100.00;101177.23;1914304;74;85442;-71
2022/02/04 13:35:09;;;;;;;43.80;41.33;;;;;;;8.74;100.00;101185.10;1986832;70;46228;-75
2022/02/04 13:47:03;;;;;;;36.47;34.40;;;;;;;8.55;100.00;101204.08;1825893;76;85876;-75
2022/02/04 13:52:59;;;;;;;39.90;37.90;;;;;;;8.69;100.00;101205.83;1804811;78;86259;-78
2022/02/04 13:58:50;;;;;;;36.27;34.47;;;;;;;8.90;100.00;101203.50;1808185;78;86320;-74
2022/02/04 14:04:32;;;;;;;38.37;36.27;;;;;;;8.70;100.00;101197.81;1824175;77;86330;-70
2022/02/04 14:10:28;;;;;;;32.17;30.33;;;;;;;8.75;100.00;101221.95;1906934;74;86665;-74
2022/02/04 14:16:22;;;;;;;34.90;32.50;;;;;;;8.86;100.00;101220.91;1915261;72;86087;-74
2022/02/04 14:22:09;;;;;;;29.57;27.87;;;;;;;8.86;100.00;101230.06;1985187;71;39486;-74
2022/02/04 14:27:56;;;;;;;33.03;31.10;;;;;;;8.96;100.00;101226.55;1980514;72;86076;-74
2022/02/04 14:36:58;;;;;;;27.60;25.90;;;;;;;9.38;100.00;101223.78;1840584;76;86265;-75
2022/02/04 14:58:34;;;;;;;25.97;24.37;;;;;;;9.28;100.00;101245.37;1889307;74;86048;-70
2022/02/04 15:00:48;;;;;;;25.03;23.63;;;;;;;9.11;100.00;101254.39;1869439;75;86218;-75
2022/02/04 15:06:33;;;;;;;26.30;24.90;;;;;;;8.71;100.00;101261.80;1909357;72;86288;-74
2022/02/04 15:12:18;;;;;;;26.53;25.03;;;;;;;8.55;100.00;101266.37;1915043;73;86470;-74
2022/02/04 15:18:04;;;;;;;28.83;26.83;;;;;;;8.56;100.00;101274.09;1995986;71;32885;-74
2022/02/04 15:23:53;;;;;;;26.13;24.73;;;;;;;8.75;100.00;101269.87;1993980;71;33356;-70
2022/02/04 15:29:44;;;;;;;25.90;24.17;;;;;;;9.10;100.00;101279.88;2013841;70;33006;-69
2022/02/04 15:35:29;;;;;;;24.50;23.10;;;;;;;9.24;100.00;101296.06;2012531;71;33332;-71
2022/02/04 15:41:15;;;;;;;23.60;22.43;;;;;;;9.19;100.00;101308.48;2005429;71;32761;-74
2022/02/04 15:47:28;;;;;;;23.20;21.90;;;;;;;9.12;100.00;101321.16;2004851;70;33383;-75
2022/02/04 15:53:27;;;;;;;23.80;22.40;;;;;;;9.12;100.00;101330.31;2010159;71;33464;-75
2022/02/04 15:59:27;;;;;;;25.10;23.83;;;;;;;9.01;100.00;101341.03;2004578;71;32995;-71
2022/02/04 16:04:58;;;;;;;25.70;24.40;;;;;;;9.01;100.00;101349.34;2001485;71;32771;-77
2022/02/04 16:10:53;;;;;;;24.23;22.60;;;;;;;9.01;100.00;101362.37;2016245;71;32834;-76
2022/02/04 16:16:42;;;;;;;22.87;21.50;;;;;;;8.98;100.00;101370.67;1997256;71;32948;-67
2022/02/04 16:22:41;;;;;;;22.47;21.23;;;;;;;8.89;100.00;101386.08;2008583;71;33302;-71
2022/02/04 16:34:23;;;;;;;19.13;18.13;;;;;;;8.66;100.00;101402.44;2013734;71;32918;-71
2022/02/04 16:40:13;;;;;;;20.23;19.03;;;;;;;8.50;100.00;101407.51;2014032;71;33430;-71
2022/02/04 16:46:02;;;;;;;20.27;19.27;;;;;;;8.48;100.00;101415.77;2003028;71;32994;-74
2022/02/04 16:51:49;;;;;;;21.73;20.50;;;;;;;8.28;100.00;101430.70;1999139;71;32954;-72
2022/02/04 16:57:34;;;;;;;24.00;22.70;;;;;;;8.14;100.00;101444.06;2015812;71;33384;-72
2022/02/04 17:03:24;;;;;;;23.43;22.23;;;;;;;8.16;100.00;101465.41;2006968;70;32986;-69
2022/02/04 17:09:22;;;;;;;21.67;20.57;;;;;;;8.06;100.00;101495.68;1997939;71;32863;-72
2022/02/04 17:15:09;;;;;;;21.33;20.33;;;;;;;7.92;100.00;101492.95;2015566;71;32824;-75
2022/02/04 17:20:54;;;;;;;21.80;20.70;;;;;;;7.82;100.00;101498.34;2017304;71;32877;-73
2022/02/04 17:26:40;;;;;;;20.00;19.27;;;;;;;7.78;100.00;101516.83;2013953;71;33302;-75
2022/02/04 17:32:28;;;;;;;20.43;19.50;;;;;;;7.72;100.00;101528.87;2001751;71;32892;-76
2022/02/04 17:38:12;;;;;;;20.03;19.00;;;;;;;7.64;100.00;101542.27;2013618;71;32877;-74
2022/02/04 17:43:57;;;;;;;19.53;18.63;;;;;;;7.60;100.00;101545.24;2013557;71;32873;-70
2022/02/04 17:49:49;;;;;;;20.63;19.63;;;;;;;7.51;100.00;101564.16;2009042;71;32829;-75
2022/02/04 17:55:31;;;;;;;21.73;20.57;;;;;;;7.38;100.00;101580.19;2017392;71;32862;-71
2022/02/04 18:01:21;;;;;;;22.67;21.37;;;;;;;7.22;100.00;101595.09;1999170;70;33314;-74
2022/02/04 18:07:11;;;;;;;24.87;23.57;;;;;;;7.12;100.00;101594.03;2010795;71;32896;-76
2022/02/04 18:12:57;;;;;;;23.73;22.40;;;;;;;7.19;100.00;101598.86;1994269;71;32769;-70
2022/02/04 18:18:42;;;;;;;23.67;22.30;;;;;;;7.19;100.00;101609.92;2003218;71;32778;-69
2022/02/04 18:24:26;;;;;;;21.77;20.57;;;;;;;7.18;100.00;101621.54;2014010;71;33334;-75
2022/02/04 18:30:16;;;;;;;24.30;22.73;;;;;;;7.13;100.00;101625.57;1994583;71;32944;-69
2022/02/04 18:36:02;;;;;;;22.10;20.90;;;;;;;7.03;100.00;101639.69;2002720;71;32837;-75
2022/02/04 18:47:55;;;;;;;22.87;21.57;;;;;;;7.00;100.00;101641.56;2015702;71;33521;-74
2022/02/04 18:53:41;;;;;;;22.77;21.40;;;;;;;6.92;100.00;101640.55;2005406;71;32882;-76
2022/02/04 18:59:26;;;;;;;23.67;22.00;;;;;;;6.90;100.00;101654.59;2003741;71;33354;-75
2022/02/04 19:05:15;;;;;;;23.07;21.67;;;;;;;6.90;100.00;101665.64;2013888;71;32978;-75
2022/02/04 19:10:58;;;;;;;25.57;23.97;;;;;;;6.88;100.00;101679.41;2014167;71;33360;-76
2022/02/04 19:16:52;;;;;;;29.30;27.00;;;;;;;6.72;100.00;101672.66;1997470;71;32857;-71
2022/02/04 19:22:35;;;;;;;26.03;24.20;;;;;;;6.64;100.00;101678.54;2007011;71;33396;-74
2022/02/04 19:28:22;;;;;;;25.43;23.77;;;;;;;6.53;100.00;101693.19;2008120;71;32898;-76
2022/02/04 19:34:06;;;;;;;26.90;25.40;;;;;;;6.64;100.00;101698.71;2012501;71;32817;-70
2022/02/04 19:39:51;;;;;;;26.53;25.13;;;;;;;6.65;100.00;101710.59;1997494;69;32886;-74
2022/02/04 19:45:44;;;;;;;26.50;24.70;;;;;;;6.66;100.00;101715.05;2006529;70;32846;-71
2022/02/04 19:51:30;;;;;;;35.27;32.77;;;;;;;6.57;100.00;101729.73;2003589;71;32859;-70
2022/02/04 20:27:23;;;;;;;51.93;48.83;;;;;;;6.19;100.00;101767.36;1998206;70;32766;-79
2022/02/04 20:33:12;;;;;;;54.77;51.43;;;;;;;6.18;100.00;101771.19;1997542;71;33482;-81
2022/02/04 20:39:02;;;;;;;57.13;53.80;;;;;;;6.08;100.00;101786.06;2012371;71;33354;-79
2022/02/04 20:44:50;;;;;;;59.83;56.03;;;;;;;6.04;100.00;101789.52;2005666;71;32749;-75
2022/02/04 20:50:37;;;;;;;61.23;57.20;;;;;;;5.90;100.00;101794.39;2003603;71;32864;-77
2022/02/04 20:56:21;;;;;;;61.90;58.00;;;;;;;5.84;100.00;101807.67;1991064;71;32737;-71
2022/02/04 21:02:06;;;;;;;58.67;54.67;;;;;;;5.76;100.00;101807.98;2012036;71;32942;-76
2022/02/04 21:08:11;;;;;;;69.33;64.43;;;;;;;5.50;100.00;101824.28;2014156;71;32924;-71
2022/02/04 21:13:46;;;;;;;72.63;67.60;;;;;;;5.56;100.00;101828.05;1990755;71;32765;-72
2022/02/04 21:19:31;;;;;;;65.77;60.83;;;;;;;5.54;100.00;101840.67;2012394;71;32850;-72
2022/02/04 21:25:18;;;;;;;62.53;58.23;;;;;;;5.59;100.00;101846.87;2005520;71;33319;-73
2022/02/04 21:31:03;;;;;;;63.40;59.30;;;;;;;5.62;100.00;101854.15;2014617;71;32916;-71
2022/02/04 21:37:03;;;;;;;61.13;56.77;;;;;;;5.52;100.00;101855.75;1996178;71;33227;-72
2022/02/04 21:42:44;;;;;;;65.03;60.70;;;;;;;5.38;100.00;101853.66;2010748;71;33359;-74
2022/02/04 21:48:30;;;;;;;62.87;58.43;;;;;;;5.54;100.00;101868.76;2006976;71;32819;-77
2022/02/04 21:54:15;;;;;;;63.43;58.37;;;;;;;5.48;100.00;101882.37;1994165;71;32739;-78
2022/02/04 22:00:00;;;;;;;61.70;57.33;;;;;;;5.39;100.00;101889.23;2017998;71;32975;-80
2022/02/04 22:05:44;;;;;;;61.17;57.00;;;;;;;5.38;100.00;101894.98;2012236;71;32800;-78
2022/02/04 22:11:57;;;;;;;64.47;59.93;;;;;;;5.25;100.00;101914.38;2009282;71;32732;-74
2022/02/04 22:17:33;;;;;;;61.07;56.40;;;;;;;5.27;100.00;101910.32;1994218;71;33183;-78
2022/02/04 22:23:13;;;;;;;63.17;58.77;;;;;;;5.38;100.00;101917.03;2003365;71;32822;-77
2022/02/04 22:28:58;;;;;;;63.87;59.20;;;;;;;5.39;100.00;101913.21;2016255;71;32851;-74
2022/02/04 22:34:54;;;;;;;62.90;58.40;;;;;;;5.39;100.00;101911.27;2009062;71;32931;-77
2022/02/04 22:53:10;;;;;;;62.40;57.97;;;;;;;5.41;100.00;101933.09;2013048;71;32854;-79
2022/02/04 22:58:45;;;;;;;63.83;58.90;;;;;;;5.37;100.00;101947.86;2015903;71;32803;-77
2022/02/04 23:04:26;;;;;;;61.97;57.37;;;;;;;5.38;100.00;101949.56;1964394;71;32908;-72
2022/02/04 23:10:11;;;;;;;63.93;59.23;;;;;;;5.41;100.00;101960.13;2005449;71;32809;-74
2022/02/04 23:15:56;;;;;;;63.57;59.17;;;;;;;5.52;100.00;101969.56;2017952;71;32834;-73
2022/02/04 23:21:49;;;;;;;63.03;58.73;;;;;;;5.49;100.00;101982.42;1949340;72;33546;-73
2022/02/04 23:37:18;;;;;;;70.73;65.77;;;;;;;5.54;100.00;102003.27;1994576;71;32773;-76
2022/02/04 23:45:42;;;;;;;69.13;64.77;;;;;;;5.58;100.00;102008.63;2005277;71;32865;-73
2022/02/04 23:51:24;;;;;;;65.77;61.17;;;;;;;5.65;100.00;102001.70;2012558;71;32940;-74
2022/02/04 23:57:10;;;;;;;67.30;62.80;;;;;;;5.54;100.00;102002.41;2016332;71;33393;-73
